Etusivu
METAR-TAF:

METAR-TAF

Lentoasemat :

Notodden, Norja

Leveyspiiri: 59-34N, Pituuspiiri: 009-13E, korkeus merenpinnasta: 19 m

Tämänhetkinen sää

Tämä raportti tehtiin 3 tuntia ja 56 minuuttia sitten, kello 16.50 UTC
Tuuli 1 kn pohjoisesta
Lämpötila 16°C
Kosteus 82%
Ilmanpaine 1018 hPa
Näkyvyys 10 km tai enemmän
Hajonneita pilviä 3000 ft:n korkeudessa
Pilvistä 4300 ft:n korkeudessa

METAR: ENNO 211650Z 36001KT 9999 BKN030 OVC043 16/13 Q1018

Aika: 22:46 (20:46 UTC)

Sääennuste

Tämä raportti tehtiin 9 tuntia ja 46 minuuttia sitten, kello 11.00 UTC
Ennuste voimassa 21. päivästä klo 12 UTC - 21. päivään klo 17 UTC
Tuuli 5 kn eri suunnista
Näkyvyys 10 km tai enemmän
Muutamia pilviä 1200 ft:n korkeudessa
Hajonneita pilviä 6000 ft:n korkeudessa
heikkoa tihkusadetta, sadetta

TAF: ENNO 211100Z 2112/2117 VRB05KT 9999 -DZRA FEW012 BKN060

Säähavainnot ja -ennusteet yli 4000 lentoasemalta (METAR- ja TAF-raportit).

Käytössä olevat sääasemat on merkitty karttaan keltaisilla ja punaisilla pisteillä.

Aseta hiiri pisteen päälle nähdäksesi sääaseman nimen.

Klikkaa sitten nähdäksesi säähavainnot ja -ennusteet.

Kartan vaihtaminen: klikkaa mustalla rastilla varustettuja vihreitä pisteitä, niin voit zoomata sisään; viivalla varustettua vihreää pistettä, niin voit zoomata ulos tai vihreitä nuolia, niin pääset viereisille kartoille.


METAR-TAF: